createdAt,value
2019-03-16T00:00:58.929Z,20.60
2019-03-16T00:01:58.945Z,21.90
2019-03-16T00:02:58.908Z,24.60
2019-03-16T00:03:58.900Z,19.20
2019-03-16T00:04:58.895Z,22.80
2019-03-16T00:05:58.880Z,21.50
2019-03-16T00:06:58.882Z,22.60
2019-03-16T00:07:58.869Z,20.90
2019-03-16T00:08:58.848Z,18.60
2019-03-16T00:09:58.841Z,23.50
2019-03-16T00:10:58.835Z,18.60
2019-03-16T00:11:58.986Z,17.60
2019-03-16T00:12:58.797Z,17.60
2019-03-16T00:13:58.792Z,21.60
2019-03-16T00:14:58.789Z,19.30
2019-03-16T00:15:58.776Z,19.20
2019-03-16T00:16:58.759Z,14.30
2019-03-16T00:17:58.790Z,19.40
2019-03-16T00:18:58.735Z,19.70
2019-03-16T00:19:58.730Z,20.20
2019-03-16T00:20:58.722Z,12.80
2019-03-16T00:21:58.706Z,19.20
2019-03-16T00:22:58.711Z,25.20
2019-03-16T00:23:58.701Z,19.10
2019-03-16T00:24:58.671Z,20.20
2019-03-16T00:25:58.656Z,23.40
2019-03-16T00:26:58.651Z,21.80
2019-03-16T00:27:58.677Z,22.20
2019-03-16T00:28:58.651Z,17.80
2019-03-16T00:29:58.615Z,15.90
2019-03-16T00:30:58.609Z,20.40
2019-03-16T00:31:58.600Z,23.10
2019-03-16T00:32:58.641Z,17.30
2019-03-16T00:33:58.578Z,15.20
2019-03-16T00:34:58.586Z,26.10
2019-03-16T00:35:58.608Z,14.10
2019-03-16T00:36:58.546Z,18.70
2019-03-16T00:37:58.585Z,21.60
2019-03-16T00:38:58.574Z,23.70
2019-03-16T00:39:58.513Z,19.60
2019-03-16T00:40:58.505Z,21.30
2019-03-16T00:41:58.492Z,16.90
2019-03-16T00:42:58.485Z,22.90
2019-03-16T00:43:58.464Z,21.90
2019-03-16T00:44:58.501Z,19.80
2019-03-16T00:45:58.445Z,22.10
2019-03-16T00:46:58.448Z,18.60
2019-03-16T00:47:58.427Z,20.00
2019-03-16T00:48:58.415Z,20.90
2019-03-16T00:49:58.431Z,25.30
2019-03-16T00:50:58.419Z,19.50
2019-03-16T00:51:58.405Z,20.80
2019-03-16T00:52:58.391Z,16.70
2019-03-16T00:53:58.393Z,24.90
2019-03-16T00:54:58.387Z,22.10
2019-03-16T00:55:58.351Z,20.70
2019-03-16T00:56:58.348Z,18.10
2019-03-16T00:57:58.329Z,18.50
2019-03-16T00:58:58.328Z,20.50
2019-03-16T00:59:58.353Z,20.80
2019-03-16T01:00:58.323Z,15.10
2019-03-16T01:01:58.292Z,11.10
2019-03-16T01:02:58.263Z,19.70
2019-03-16T01:03:58.260Z,19.40
2019-03-16T01:04:58.283Z,14.80
2019-03-16T01:05:58.307Z,13.50
2019-03-16T01:06:58.231Z,19.60
2019-03-16T01:07:58.212Z,22.60
2019-03-16T01:08:58.209Z,25.10
2019-03-16T01:09:58.215Z,19.40
2019-03-16T01:10:58.215Z,21.40
2019-03-16T01:11:58.165Z,18.00
2019-03-16T01:12:58.170Z,17.30
2019-03-16T01:13:58.172Z,20.10
2019-03-16T01:14:58.158Z,14.30
2019-03-16T01:15:58.154Z,19.30
2019-03-16T01:16:58.126Z,20.00
2019-03-16T01:17:58.106Z,23.20
2019-03-16T01:18:58.093Z,21.30
2019-03-16T01:19:58.112Z,21.80
2019-03-16T01:20:58.096Z,15.20
2019-03-16T01:21:58.096Z,18.40
2019-03-16T01:22:58.068Z,22.40
2019-03-16T01:23:58.090Z,21.50
2019-03-16T01:24:58.023Z,23.60
2019-03-16T01:25:58.030Z,22.50
2019-03-16T01:26:58.048Z,25.40
2019-03-16T01:27:58.035Z,23.90
2019-03-16T01:28:58.012Z,23.50
2019-03-16T01:29:57.975Z,20.60
2019-03-16T01:30:57.980Z,19.00
2019-03-16T01:31:57.960Z,15.50
2019-03-16T01:32:57.965Z,22.10
2019-03-16T01:33:57.939Z,20.40
2019-03-16T01:34:57.920Z,21.70
2019-03-16T01:35:57.916Z,21.90
2019-03-16T01:36:57.920Z,22.90
2019-03-16T01:37:57.903Z,23.10
2019-03-16T01:38:57.883Z,20.50
2019-03-16T01:39:57.978Z,28.10
2019-03-16T01:40:57.857Z,21.10
2019-03-16T01:41:57.841Z,17.10
2019-03-16T01:42:57.858Z,18.60
2019-03-16T01:43:57.843Z,24.50
2019-03-16T01:44:57.823Z,22.10
2019-03-16T01:45:57.802Z,19.70
2019-03-16T01:46:57.798Z,16.10
2019-03-16T01:47:57.776Z,17.50
2019-03-16T01:48:57.789Z,18.70
2019-03-16T01:49:57.777Z,28.40
2019-03-16T01:50:57.763Z,19.80
2019-03-16T01:51:57.742Z,20.70
2019-03-16T01:52:57.744Z,19.50
2019-03-16T01:53:57.718Z,23.60
2019-03-16T01:54:57.716Z,23.00
2019-03-16T01:55:57.696Z,18.20
2019-03-16T01:56:57.685Z,30.30
2019-03-16T01:57:57.699Z,18.00
2019-03-16T01:58:57.686Z,21.20
2019-03-16T01:59:57.645Z,19.50
2019-03-16T02:00:57.646Z,18.00
2019-03-16T02:01:57.632Z,25.70
2019-03-16T02:02:57.696Z,20.20
2019-03-16T02:03:57.704Z,23.00
2019-03-16T02:04:57.602Z,25.20
2019-03-16T02:05:57.595Z,18.30
2019-03-16T02:06:57.579Z,18.40
2019-03-16T02:07:57.572Z,22.10
2019-03-16T02:08:57.574Z,21.20
2019-03-16T02:09:57.551Z,20.70
2019-03-16T02:10:57.536Z,21.90
2019-03-16T02:12:00.372Z,24.60
2019-03-16T02:12:57.506Z,21.70
2019-03-16T02:13:57.524Z,21.30
2019-03-16T02:14:57.491Z,21.20
2019-03-16T02:16:10.419Z,21.60
2019-03-16T02:16:58.466Z,21.80
2019-03-16T02:17:57.456Z,20.50
2019-03-16T02:18:57.443Z,23.40
2019-03-16T02:19:57.508Z,19.90
2019-03-16T02:20:57.421Z,22.40
2019-03-16T02:21:57.411Z,20.40
2019-03-16T02:22:57.404Z,22.90
2019-03-16T02:23:57.416Z,21.80
2019-03-16T02:24:57.378Z,21.80
2019-03-16T02:25:57.409Z,20.20
2019-03-16T02:26:57.356Z,21.00
2019-03-16T02:27:57.368Z,20.00
2019-03-16T02:28:57.358Z,23.10
2019-03-16T02:29:57.407Z,21.40
2019-03-16T02:30:57.322Z,22.20
2019-03-16T02:31:57.312Z,19.90
2019-03-16T02:33:11.807Z,20.40
2019-03-16T02:33:58.340Z,19.40
2019-03-16T02:34:57.289Z,24.40
2019-03-16T02:35:57.306Z,18.60
2019-03-16T02:36:57.262Z,22.00
2019-03-16T02:37:57.279Z,23.60
2019-03-16T02:38:57.239Z,26.80
2019-03-16T02:39:57.229Z,18.70
2019-03-16T02:40:57.244Z,22.20
2019-03-16T02:41:57.206Z,24.20
2019-03-16T02:42:57.213Z,24.50
2019-03-16T02:43:57.210Z,21.20
2019-03-16T02:44:57.196Z,23.40
2019-03-16T02:45:57.166Z,20.40
2019-03-16T02:46:57.174Z,21.80
2019-03-16T02:47:57.142Z,24.60
2019-03-16T02:48:57.131Z,17.30
2019-03-16T02:49:57.144Z,21.60
2019-03-16T02:50:57.112Z,23.60
2019-03-16T02:51:57.088Z,25.90
2019-03-16T02:52:57.127Z,20.00
2019-03-16T02:53:57.073Z,19.90
2019-03-16T02:54:57.124Z,23.10
2019-03-16T02:55:57.093Z,25.20
2019-03-16T02:56:57.047Z,24.80
2019-03-16T02:57:57.098Z,23.40
2019-03-16T02:58:57.035Z,25.20
2019-03-16T02:59:57.013Z,14.00
2019-03-16T03:00:57.008Z,19.30
2019-03-16T03:01:56.988Z,22.80
2019-03-16T03:02:56.988Z,17.30
2019-03-16T03:03:56.981Z,22.30
2019-03-16T03:04:56.986Z,21.00
2019-03-16T03:05:56.941Z,19.90
2019-03-16T03:06:56.944Z,24.90
2019-03-16T03:07:56.922Z,25.70
2019-03-16T03:08:56.968Z,21.50
2019-03-16T03:09:56.933Z,20.60
2019-03-16T03:10:56.919Z,21.10
2019-03-16T03:11:56.922Z,25.80
2019-03-16T03:12:56.882Z,21.90
2019-03-16T03:13:56.881Z,25.80
2019-03-16T03:14:56.843Z,21.40
2019-03-16T03:15:56.849Z,17.70
2019-03-16T03:16:56.827Z,18.40
2019-03-16T03:17:56.814Z,20.10
2019-03-16T03:18:56.827Z,21.10
2019-03-16T03:19:56.789Z,18.60
2019-03-16T03:20:56.784Z,23.60
2019-03-16T03:21:56.788Z,19.40
2019-03-16T03:22:56.756Z,26.40
2019-03-16T03:23:56.756Z,21.70
2019-03-16T03:24:56.765Z,16.40
2019-03-16T03:25:56.729Z,21.70
2019-03-16T03:26:56.726Z,25.30
2019-03-16T03:27:56.719Z,18.90
2019-03-16T03:28:56.719Z,23.60
2019-03-16T03:29:57.571Z,21.30
2019-03-16T03:30:56.763Z,24.70
2019-03-16T03:31:56.662Z,24.10
2019-03-16T03:32:56.664Z,30.50
2019-03-16T03:34:01.047Z,24.40
2019-03-16T03:34:57.642Z,21.50
2019-03-16T03:35:56.630Z,21.70
2019-03-16T03:36:56.638Z,23.90
2019-03-16T03:37:56.607Z,22.70
2019-03-16T03:38:56.591Z,23.90
2019-03-16T03:39:56.610Z,19.60
2019-03-16T03:41:01.222Z,24.00
2019-03-16T03:41:57.558Z,25.30
2019-03-16T03:42:56.542Z,21.80
2019-03-16T03:43:56.562Z,23.70
2019-03-16T03:44:56.525Z,21.60
2019-03-16T03:45:56.534Z,23.30
2019-03-16T03:46:56.496Z,25.50
2019-03-16T03:47:56.512Z,26.60
2019-03-16T03:48:56.475Z,20.10
2019-03-16T03:49:56.473Z,24.70
2019-03-16T03:50:56.458Z,22.50
2019-03-16T03:51:56.480Z,23.00
2019-03-16T03:52:56.454Z,21.30
2019-03-16T03:53:56.454Z,23.20
2019-03-16T03:54:56.428Z,20.10
2019-03-16T03:55:56.408Z,25.30
2019-03-16T03:56:56.404Z,28.30
2019-03-16T03:57:56.402Z,24.30
2019-03-16T03:58:56.384Z,24.20
2019-03-16T03:59:56.373Z,21.60
2019-03-16T04:00:56.359Z,21.90
2019-03-16T04:01:56.356Z,25.80
2019-03-16T04:02:56.359Z,24.80
2019-03-16T04:04:13.773Z,20.30
2019-03-16T04:04:57.340Z,21.10
2019-03-16T04:05:56.302Z,22.60
2019-03-16T04:06:56.285Z,24.40
2019-03-16T04:07:56.286Z,26.40
2019-03-16T04:08:56.376Z,28.60
2019-03-16T04:09:56.285Z,26.80
2019-03-16T04:10:56.242Z,24.20
2019-03-16T04:11:56.246Z,24.80
2019-03-16T04:12:56.217Z,23.10
2019-03-16T04:13:56.211Z,27.00
2019-03-16T04:14:56.227Z,21.70
2019-03-16T04:15:56.265Z,26.50
2019-03-16T04:16:56.190Z,21.10
2019-03-16T04:17:56.174Z,26.70
2019-03-16T04:18:56.156Z,25.40
2019-03-16T04:19:56.145Z,22.50
2019-03-16T04:20:56.165Z,24.40
2019-03-16T04:21:56.135Z,20.60
2019-03-16T04:22:56.124Z,21.10
2019-03-16T04:23:56.110Z,22.80
2019-03-16T04:24:56.085Z,23.20
2019-03-16T04:25:56.103Z,26.70
2019-03-16T04:26:56.149Z,25.40
2019-03-16T04:27:56.063Z,21.40
2019-03-16T04:28:56.047Z,21.20
2019-03-16T04:29:56.058Z,22.40
2019-03-16T04:30:56.028Z,27.30
2019-03-16T04:31:56.034Z,21.10
2019-03-16T04:32:56.041Z,25.20
2019-03-16T04:33:56.000Z,21.60
2019-03-16T04:34:56.008Z,22.90
2019-03-16T04:35:55.986Z,21.70
2019-03-16T04:36:55.965Z,23.90
2019-03-16T04:37:55.969Z,19.90
2019-03-16T04:38:55.941Z,18.70
2019-03-16T04:39:55.933Z,22.60
2019-03-16T04:40:55.924Z,21.10
2019-03-16T04:41:55.942Z,25.20
2019-03-16T04:42:55.896Z,22.50
2019-03-16T04:43:55.904Z,23.80
2019-03-16T04:44:55.879Z,22.80
2019-03-16T04:45:55.872Z,21.90
2019-03-16T04:46:55.860Z,23.40
2019-03-16T04:47:55.869Z,25.40
2019-03-16T04:48:55.837Z,21.70
2019-03-16T04:49:55.841Z,22.70
2019-03-16T04:50:55.811Z,24.30
2019-03-16T04:51:55.808Z,25.60
2019-03-16T04:52:55.800Z,25.20
2019-03-16T04:53:55.804Z,24.90
2019-03-16T04:54:55.777Z,21.90
2019-03-16T04:55:55.766Z,21.60
2019-03-16T04:56:55.755Z,21.30
2019-03-16T04:57:55.777Z,24.30
2019-03-16T04:58:55.738Z,27.90
2019-03-16T04:59:55.746Z,24.80
2019-03-16T05:00:55.706Z,19.10
2019-03-16T05:01:55.698Z,20.20
2019-03-16T05:02:55.684Z,23.20
2019-03-16T05:03:55.694Z,21.80
2019-03-16T05:04:55.669Z,25.90
2019-03-16T05:05:55.678Z,21.60
2019-03-16T05:06:55.683Z,27.30
2019-03-16T05:07:55.649Z,24.40
2019-03-16T05:08:55.623Z,23.30
2019-03-16T05:09:55.607Z,23.60
2019-03-16T05:10:55.707Z,23.40
2019-03-16T05:11:55.592Z,18.60
2019-03-16T05:12:55.583Z,22.70
2019-03-16T05:13:55.596Z,21.80
2019-03-16T05:14:55.556Z,20.40
2019-03-16T05:15:55.567Z,24.20
2019-03-16T05:16:55.557Z,20.20
2019-03-16T05:17:55.533Z,19.40
2019-03-16T05:18:55.560Z,24.40
2019-03-16T05:19:55.509Z,25.60
2019-03-16T05:20:55.531Z,21.80
2019-03-16T05:21:55.478Z,20.40
2019-03-16T05:22:55.539Z,23.50
2019-03-16T05:23:55.454Z,19.00
2019-03-16T05:24:55.469Z,18.50
2019-03-16T05:25:55.457Z,23.10
2019-03-16T05:26:55.443Z,28.90
2019-03-16T05:27:55.419Z,24.60
2019-03-16T05:28:55.430Z,21.40
2019-03-16T05:29:55.405Z,17.60
2019-03-16T05:30:55.391Z,25.30
2019-03-16T05:31:55.388Z,22.60
2019-03-16T05:32:55.386Z,23.10
2019-03-16T05:33:55.351Z,26.10
2019-03-16T05:34:56.758Z,20.60
2019-03-16T05:35:55.331Z,25.20
2019-03-16T05:36:56.234Z,25.20
2019-03-16T05:37:55.334Z,21.60
2019-03-16T05:38:55.291Z,21.70
2019-03-16T05:39:55.295Z,16.70
2019-03-16T05:40:55.313Z,22.10
2019-03-16T05:41:55.297Z,23.10
2019-03-16T05:42:55.264Z,22.30
2019-03-16T05:43:55.284Z,26.10
2019-03-16T05:44:55.232Z,22.10
2019-03-16T05:45:55.259Z,19.70
2019-03-16T05:46:55.268Z,20.30
2019-03-16T05:47:55.221Z,23.90
2019-03-16T05:48:55.211Z,24.60
2019-03-16T05:49:55.207Z,21.00
2019-03-16T05:50:57.494Z,18.50
2019-03-16T05:51:55.171Z,19.60
2019-03-16T05:52:55.187Z,21.40
2019-03-16T05:53:55.146Z,24.80
2019-03-16T05:54:55.152Z,19.60
2019-03-16T05:55:55.149Z,18.20
2019-03-16T05:56:55.105Z,21.10
2019-03-16T05:57:55.128Z,24.40
2019-03-16T05:58:55.213Z,20.60
2019-03-16T05:59:55.093Z,19.70
2019-03-16T06:00:55.085Z,17.80
2019-03-16T06:01:55.068Z,19.50
2019-03-16T06:02:55.047Z,25.10
2019-03-16T06:03:55.094Z,20.00
2019-03-16T06:04:55.019Z,23.00
2019-03-16T06:05:55.055Z,19.30
2019-03-16T06:06:55.037Z,21.10
2019-03-16T06:07:54.991Z,22.10
2019-03-16T06:08:54.989Z,19.90
2019-03-16T06:09:55.011Z,22.40
2019-03-16T06:10:54.958Z,22.90
2019-03-16T06:11:54.943Z,23.60
2019-03-16T06:12:54.938Z,21.40
2019-03-16T06:13:54.918Z,19.20
2019-03-16T06:14:54.951Z,24.30
2019-03-16T06:15:54.953Z,18.60
2019-03-16T06:16:54.996Z,21.00
2019-03-16T06:17:54.891Z,21.90
2019-03-16T06:18:54.874Z,22.70
2019-03-16T06:19:54.858Z,20.50
2019-03-16T06:20:54.846Z,23.70
2019-03-16T06:21:54.852Z,19.30
2019-03-16T06:22:54.842Z,19.60
2019-03-16T06:23:54.821Z,17.60
2019-03-16T06:24:54.803Z,18.40
2019-03-16T06:25:54.811Z,20.60
2019-03-16T06:26:54.821Z,20.50
2019-03-16T06:27:54.777Z,22.20
2019-03-16T06:28:54.764Z,18.40
2019-03-16T06:29:54.766Z,20.40
2019-03-16T06:30:54.742Z,20.40
2019-03-16T06:31:54.758Z,20.30
2019-03-16T06:32:54.716Z,18.40
2019-03-16T06:33:54.742Z,25.20
2019-03-16T06:34:54.706Z,17.00
2019-03-16T06:35:54.692Z,19.40
2019-03-16T06:36:54.676Z,19.20
2019-03-16T06:37:54.691Z,20.30
2019-03-16T06:38:54.651Z,24.20
2019-03-16T06:39:54.646Z,20.30
2019-03-16T06:40:54.636Z,16.30
2019-03-16T06:41:54.638Z,23.50
2019-03-16T06:42:54.667Z,18.50
2019-03-16T06:43:54.595Z,23.00
2019-03-16T06:44:54.595Z,19.90
2019-03-16T06:45:54.606Z,24.50
2019-03-16T06:46:54.566Z,20.50
2019-03-16T06:47:54.996Z,19.80
2019-03-16T06:48:54.574Z,16.40
2019-03-16T06:49:54.572Z,17.10
2019-03-16T06:50:54.533Z,18.50
2019-03-16T06:51:54.513Z,18.60
2019-03-16T06:52:54.509Z,19.80
2019-03-16T06:53:54.508Z,19.60
2019-03-16T06:54:54.523Z,15.20
2019-03-16T06:55:54.517Z,17.40
2019-03-16T06:56:54.465Z,20.40
2019-03-16T06:57:54.479Z,16.50
2019-03-16T06:58:54.448Z,19.10
2019-03-16T06:59:54.437Z,24.20
2019-03-16T07:00:54.445Z,20.60
2019-03-16T07:01:54.492Z,20.50
2019-03-16T07:02:54.446Z,19.10
2019-03-16T07:03:54.395Z,23.80
2019-03-16T07:04:54.383Z,19.00
2019-03-16T07:05:54.446Z,17.30
2019-03-16T07:06:54.361Z,14.70
2019-03-16T07:07:54.351Z,18.90
2019-03-16T07:08:54.349Z,17.70
2019-03-16T07:09:54.339Z,17.80
2019-03-16T07:10:54.331Z,19.90
2019-03-16T07:11:54.367Z,19.00
2019-03-16T07:12:54.299Z,21.10
2019-03-16T07:13:54.286Z,16.30
2019-03-16T07:14:54.272Z,18.10
2019-03-16T07:15:54.271Z,19.60
2019-03-16T07:17:02.008Z,18.40
2019-03-16T07:17:55.306Z,17.80
2019-03-16T07:18:59.033Z,16.10
2019-03-16T07:19:55.219Z,19.30
2019-03-16T07:20:54.206Z,21.50
2019-03-16T07:21:54.239Z,18.40
2019-03-16T07:22:54.208Z,13.00
2019-03-16T07:23:54.187Z,17.30
2019-03-16T07:24:54.167Z,17.40
2019-03-16T07:25:54.154Z,16.80
2019-03-16T07:26:54.153Z,15.90
2019-03-16T07:27:54.175Z,18.30
2019-03-16T07:28:54.120Z,17.30
2019-03-16T07:29:54.106Z,20.60
2019-03-16T07:30:54.096Z,15.90
2019-03-16T07:31:54.098Z,17.80
2019-03-16T07:32:54.080Z,16.80
2019-03-16T07:33:54.085Z,19.60
2019-03-16T07:34:54.074Z,18.40
2019-03-16T07:35:54.047Z,15.80
2019-03-16T07:36:54.049Z,17.80
2019-03-16T07:37:54.037Z,15.30
2019-03-16T07:38:54.025Z,18.40
2019-03-16T07:39:54.029Z,15.40
2019-03-16T07:40:54.000Z,15.30
2019-03-16T07:41:53.986Z,16.00
2019-03-16T07:42:53.973Z,20.50
2019-03-16T07:43:53.971Z,14.80
2019-03-16T07:45:07.276Z,15.90
2019-03-16T07:45:54.977Z,20.00
2019-03-16T07:46:53.924Z,16.10
2019-03-16T07:47:53.914Z,18.00
2019-03-16T07:48:53.905Z,16.70
2019-03-16T07:49:53.907Z,17.50
2019-03-16T07:50:53.877Z,15.90
2019-03-16T07:51:54.702Z,19.10
2019-03-16T07:52:53.878Z,16.30
2019-03-16T07:53:53.879Z,16.70
2019-03-16T07:54:53.838Z,18.00
2019-03-16T07:55:53.833Z,15.00
2019-03-16T07:56:53.830Z,22.60
2019-03-16T07:57:53.828Z,17.80
2019-03-16T07:58:53.799Z,18.60
2019-03-16T07:59:53.798Z,20.10
2019-03-16T08:00:53.769Z,18.10
2019-03-16T08:01:53.802Z,19.00
2019-03-16T08:02:53.767Z,15.30
2019-03-16T08:03:53.794Z,18.80
2019-03-16T08:04:53.734Z,16.20
2019-03-16T08:05:53.751Z,17.30
2019-03-16T08:06:53.729Z,18.90
2019-03-16T08:07:53.698Z,18.60
2019-03-16T08:08:53.701Z,18.10
2019-03-16T08:09:53.688Z,16.00
2019-03-16T08:10:53.704Z,15.90
2019-03-16T08:11:53.670Z,19.70
2019-03-16T08:12:53.678Z,20.50
2019-03-16T08:13:53.751Z,18.80
2019-03-16T08:14:53.624Z,17.80
2019-03-16T08:15:53.605Z,20.60
2019-03-16T08:16:53.601Z,17.20
2019-03-16T08:17:53.594Z,19.30
2019-03-16T08:18:53.609Z,17.40
2019-03-16T08:19:53.595Z,16.90
2019-03-16T08:20:53.566Z,20.80
2019-03-16T08:21:53.561Z,17.30
2019-03-16T08:22:53.546Z,22.00
2019-03-16T08:23:53.884Z,16.20
2019-03-16T08:24:53.544Z,18.20
2019-03-16T08:25:53.501Z,19.00
2019-03-16T08:26:53.510Z,17.70
2019-03-16T08:27:54.811Z,20.30
2019-03-16T08:28:53.474Z,18.30
2019-03-16T08:29:53.451Z,19.00
2019-03-16T08:30:56.618Z,15.20
2019-03-16T08:31:53.448Z,17.40
2019-03-16T08:32:53.441Z,17.00
2019-03-16T08:33:53.442Z,16.00
2019-03-16T08:34:53.416Z,16.60
2019-03-16T08:35:53.405Z,19.90
2019-03-16T08:36:53.420Z,15.30
2019-03-16T08:37:53.369Z,19.10
2019-03-16T08:38:53.387Z,15.50
2019-03-16T08:39:53.365Z,13.80
2019-03-16T08:40:53.388Z,16.60
2019-03-16T08:41:53.332Z,18.10
2019-03-16T08:42:53.354Z,19.70
2019-03-16T08:43:53.308Z,17.70
2019-03-16T08:44:53.287Z,16.80
2019-03-16T08:45:53.304Z,18.50
2019-03-16T08:46:53.272Z,15.20
2019-03-16T08:47:54.103Z,18.80
2019-03-16T08:48:53.278Z,17.30
2019-03-16T08:49:53.250Z,15.90
2019-03-16T08:50:53.230Z,16.80
2019-03-16T08:51:53.213Z,15.10
2019-03-16T08:52:53.935Z,14.80
2019-03-16T08:53:53.242Z,15.10
2019-03-16T08:54:53.179Z,17.70
2019-03-16T08:55:53.231Z,17.00
2019-03-16T08:56:53.160Z,16.90
2019-03-16T08:58:05.386Z,14.80
2019-03-16T08:58:54.158Z,15.40
2019-03-16T08:59:53.161Z,15.50
2019-03-16T09:00:53.113Z,17.80
2019-03-16T09:01:53.102Z,14.20
2019-03-16T09:02:53.129Z,21.20
2019-03-16T09:03:53.102Z,16.40
2019-03-16T09:04:53.178Z,15.90
2019-03-16T09:05:53.063Z,16.90
2019-03-16T09:06:53.177Z,15.80
2019-03-16T09:07:53.062Z,15.90
2019-03-16T09:08:53.108Z,14.30
2019-03-16T09:09:53.601Z,18.00
2019-03-16T09:10:53.028Z,15.90
2019-03-16T09:11:52.996Z,15.20
2019-03-16T09:12:55.323Z,14.30
2019-03-16T09:13:52.996Z,16.00
2019-03-16T09:14:52.956Z,12.70
2019-03-16T09:15:52.984Z,13.60
2019-03-16T09:16:52.962Z,16.90
2019-03-16T09:17:52.962Z,12.60
2019-03-16T09:18:52.933Z,15.60
2019-03-16T09:19:52.910Z,13.20
2019-03-16T09:20:52.938Z,13.40
2019-03-16T09:21:52.914Z,14.40
2019-03-16T09:22:52.868Z,15.70
2019-03-16T09:23:52.861Z,10.10
2019-03-16T09:24:52.923Z,10.80
2019-03-16T09:25:52.853Z,12.30
2019-03-16T09:26:53.155Z,11.70
2019-03-16T09:27:52.820Z,14.60
2019-03-16T09:28:59.998Z,13.10
2019-03-16T09:29:53.813Z,14.10
2019-03-16T09:30:52.790Z,12.70
2019-03-16T09:31:52.770Z,14.60
2019-03-16T09:32:52.788Z,12.80
2019-03-16T09:33:52.821Z,14.20
2019-03-16T09:34:52.740Z,14.30
2019-03-16T09:35:52.760Z,16.30
2019-03-16T09:36:52.773Z,14.60
2019-03-16T09:37:52.756Z,13.10
2019-03-16T09:38:52.696Z,14.70
2019-03-16T09:39:52.697Z,13.80
2019-03-16T09:40:52.673Z,14.70
2019-03-16T09:41:52.699Z,13.90
2019-03-16T09:42:52.657Z,10.40
2019-03-16T09:43:52.635Z,12.10
2019-03-16T09:44:52.645Z,17.30
2019-03-16T09:45:52.616Z,12.70
2019-03-16T09:46:52.638Z,11.60
2019-03-16T09:47:52.615Z,13.00
2019-03-16T09:48:52.601Z,10.00
2019-03-16T09:49:52.580Z,9.50
2019-03-16T09:50:52.576Z,11.90
2019-03-16T09:51:52.549Z,10.20
2019-03-16T09:52:52.573Z,10.60
2019-03-16T09:53:52.526Z,10.30
2019-03-16T09:54:52.538Z,13.00
2019-03-16T09:55:52.510Z,13.20
2019-03-16T09:57:01.043Z,9.80
2019-03-16T09:57:53.513Z,10.10
2019-03-16T09:58:52.493Z,11.30
2019-03-16T09:59:52.482Z,9.70
2019-03-16T10:00:52.450Z,10.10
2019-03-16T10:01:52.447Z,10.40
2019-03-16T10:02:52.463Z,12.00
2019-03-16T10:03:52.469Z,9.10
2019-03-16T10:04:52.423Z,8.70
2019-03-16T10:05:52.432Z,12.00
2019-03-16T10:06:52.392Z,8.30
2019-03-16T10:07:52.395Z,12.30
2019-03-16T10:08:52.369Z,9.90
2019-03-16T10:09:52.401Z,9.60
2019-03-16T10:10:52.371Z,8.80
2019-03-16T10:11:52.460Z,10.40
2019-03-16T10:12:52.320Z,9.10
2019-03-16T10:13:52.311Z,11.70
2019-03-16T10:14:52.316Z,14.60
2019-03-16T10:15:52.316Z,11.50
2019-03-16T10:16:52.327Z,12.20
2019-03-16T10:17:52.340Z,11.50
2019-03-16T10:18:52.264Z,11.90
2019-03-16T10:19:52.255Z,10.50
2019-03-16T10:20:52.245Z,10.60
2019-03-16T10:21:52.266Z,11.00
2019-03-16T10:22:52.220Z,12.30
2019-03-16T10:23:52.264Z,10.00
2019-03-16T10:24:52.200Z,10.50
2019-03-16T10:25:52.179Z,10.10
2019-03-16T10:26:52.180Z,10.60
2019-03-16T10:27:52.197Z,8.60
2019-03-16T10:28:52.151Z,10.10
2019-03-16T10:29:52.142Z,8.30
2019-03-16T10:30:53.236Z,9.30
2019-03-16T10:31:52.133Z,10.40
2019-03-16T10:32:52.151Z,8.30
2019-03-16T10:33:52.130Z,9.50
2019-03-16T10:34:52.083Z,10.80
2019-03-16T10:35:52.085Z,12.60
2019-03-16T10:36:52.058Z,7.30
2019-03-16T10:37:52.059Z,8.00
2019-03-16T10:38:52.083Z,7.50
2019-03-16T10:39:52.037Z,6.80
2019-03-16T10:40:52.455Z,8.10
2019-03-16T10:41:52.013Z,9.70
2019-03-16T10:42:51.996Z,6.40
2019-03-16T10:43:52.007Z,9.50
2019-03-16T10:44:51.992Z,7.20
2019-03-16T10:45:51.961Z,7.90
2019-03-16T10:46:51.965Z,6.10
2019-03-16T10:47:51.945Z,7.00
2019-03-16T10:48:51.954Z,9.30
2019-03-16T10:49:51.952Z,8.00
2019-03-16T10:50:51.930Z,7.00
2019-03-16T10:51:51.916Z,7.70
2019-03-16T10:52:51.896Z,10.80
2019-03-16T10:53:51.877Z,10.60
2019-03-16T10:54:51.910Z,8.50
2019-03-16T10:55:51.866Z,7.60
2019-03-16T10:56:51.849Z,10.40
2019-03-16T10:57:51.830Z,8.40
2019-03-16T10:58:56.491Z,9.00
2019-03-16T10:59:52.842Z,11.20
2019-03-16T11:00:51.792Z,9.90
2019-03-16T11:01:51.809Z,9.70
2019-03-16T11:02:51.805Z,8.80
2019-03-16T11:03:51.773Z,7.40
2019-03-16T11:04:51.759Z,9.80
2019-03-16T11:05:51.756Z,8.30
2019-03-16T11:06:51.744Z,8.90
2019-03-16T11:07:51.723Z,9.30
2019-03-16T11:08:51.713Z,8.60
2019-03-16T11:09:51.693Z,10.30
2019-03-16T11:10:51.711Z,10.10
2019-03-16T11:11:51.677Z,7.90
2019-03-16T11:12:51.670Z,5.80
2019-03-16T11:13:51.686Z,6.90
2019-03-16T11:14:51.644Z,7.40
2019-03-16T11:15:51.640Z,5.30
2019-03-16T11:16:51.675Z,7.30
2019-03-16T11:17:51.615Z,7.20
2019-03-16T11:18:51.608Z,6.40
2019-03-16T11:19:51.682Z,6.20
2019-03-16T11:20:51.598Z,5.90
2019-03-16T11:21:51.578Z,6.30
2019-03-16T11:22:51.683Z,4.30
2019-03-16T11:23:51.541Z,5.80
2019-03-16T11:24:51.538Z,6.60
2019-03-16T11:25:51.524Z,5.70
2019-03-16T11:26:51.544Z,6.50
2019-03-16T11:27:51.555Z,5.60
2019-03-16T11:28:51.502Z,8.40
2019-03-16T11:29:51.478Z,5.20
2019-03-16T11:30:51.478Z,7.00
2019-03-16T11:31:51.482Z,6.90
2019-03-16T11:32:51.454Z,7.40
2019-03-16T11:33:51.433Z,8.30
2019-03-16T11:34:51.440Z,7.70
2019-03-16T11:35:51.409Z,9.50
2019-03-16T11:36:51.395Z,18.50
2019-03-16T11:37:51.426Z,19.70
2019-03-16T11:38:51.410Z,17.90
2019-03-16T11:39:51.370Z,14.90
2019-03-16T11:40:51.355Z,14.80
2019-03-16T11:41:51.366Z,11.70
2019-03-16T11:42:51.393Z,13.50
2019-03-16T11:43:51.452Z,10.50
2019-03-16T11:44:51.321Z,10.00
2019-03-16T11:45:51.335Z,9.10
2019-03-16T11:46:51.319Z,9.90
2019-03-16T11:47:51.296Z,8.80
2019-03-16T11:48:51.270Z,8.60
2019-03-16T11:49:51.299Z,10.60
2019-03-16T11:50:51.252Z,7.90
2019-03-16T11:51:51.245Z,5.20
2019-03-16T11:52:51.433Z,5.60
2019-03-16T11:53:51.226Z,6.90
2019-03-16T11:54:51.238Z,5.70
2019-03-16T11:55:51.194Z,5.30
2019-03-16T11:56:51.174Z,4.50
2019-03-16T11:57:51.177Z,4.90
2019-03-16T11:58:51.166Z,5.70
2019-03-16T11:59:51.166Z,6.40
2019-03-16T12:00:51.168Z,5.70
2019-03-16T12:01:51.127Z,5.00
2019-03-16T12:02:52.868Z,5.30
2019-03-16T12:03:51.115Z,5.00
2019-03-16T12:04:51.105Z,8.70
2019-03-16T12:05:51.108Z,5.60
2019-03-16T12:06:51.067Z,6.40
2019-03-16T12:07:51.052Z,8.60
2019-03-16T12:08:51.104Z,6.80
2019-03-16T12:09:51.043Z,11.60
2019-03-16T12:10:51.038Z,7.00
2019-03-16T12:11:51.043Z,5.30
2019-03-16T12:12:51.008Z,4.20
2019-03-16T12:13:50.986Z,7.50
2019-03-16T12:14:50.977Z,6.70
2019-03-16T12:15:50.968Z,6.80
2019-03-16T12:16:50.962Z,5.70
2019-03-16T12:17:50.987Z,11.00
2019-03-16T12:18:50.939Z,10.50
2019-03-16T12:19:50.996Z,13.80
2019-03-16T12:20:50.910Z,16.80
2019-03-16T12:21:50.907Z,12.30
2019-03-16T12:22:50.919Z,8.10
2019-03-16T12:23:50.884Z,5.50
2019-03-16T12:24:50.873Z,4.60
2019-03-16T12:25:50.863Z,6.80
2019-03-16T12:26:50.845Z,5.60
2019-03-16T12:27:50.835Z,6.50
2019-03-16T12:28:50.875Z,6.80
2019-03-16T12:29:50.812Z,4.80
2019-03-16T12:30:50.807Z,7.30
2019-03-16T12:31:50.788Z,5.70
2019-03-16T12:32:50.828Z,7.50
2019-03-16T12:33:50.776Z,4.30
2019-03-16T12:34:50.787Z,4.10
2019-03-16T12:35:50.743Z,5.40
2019-03-16T12:36:50.737Z,5.80
2019-03-16T12:37:50.734Z,6.30
2019-03-16T12:38:50.712Z,5.20
2019-03-16T12:39:50.717Z,6.20
2019-03-16T12:40:50.742Z,5.60
2019-03-16T12:41:50.728Z,7.40
2019-03-16T12:42:50.688Z,3.90
2019-03-16T12:43:50.662Z,3.90
2019-03-16T12:44:50.655Z,3.60
2019-03-16T12:45:50.659Z,3.60
2019-03-16T12:46:50.647Z,3.10
2019-03-16T12:47:50.618Z,3.30
2019-03-16T12:48:50.630Z,3.90
2019-03-16T12:49:50.592Z,4.00
2019-03-16T12:50:50.591Z,3.30
2019-03-16T12:51:50.602Z,3.70
2019-03-16T12:52:50.559Z,3.60
2019-03-16T12:53:50.549Z,4.20
2019-03-16T12:54:50.545Z,3.40
2019-03-16T12:55:50.552Z,4.00
2019-03-16T12:56:50.577Z,4.20
2019-03-16T12:57:50.513Z,5.00